Fulton County Airport Brown Field
KFTY : rendu visible

Aérodrome :











RETROUVEZ-NOUS SUR...

 
LOGIN :

S'inscrire | Disclaimer

   EN    FR    IT 

 









Légende :    VFR   VFR Marginal   IFR   IFR Intensif   IFR Très Intensif
Visi : 
Plafond : 
>= 8 km
>= 3000ft
5 à 8 km
1000 à 3000 ft
1500m à 5 km
500 à 1000 ft
800 à 1500m
200 à 500 ft
< 800m
< 200 ft
Symboles :   Orages  Brouillard  Fortes neiges  Fortes précipitations  Vent > 20 kt






- Altitude de l'aérodrome : 841 ft


KFTY - Fulton County Brown Field

DERNIER METAR :
  • 260453Z 26004KT 10SM CLR 03/M01 A3011 RMK AO2 SLP199 T00281011 400720028

METARs EXPIRÉS :
  • 260353Z 28006KT 10SM CLR 03/M01 A3011 RMK AO2 SLP201 T00331011
  • 260253Z 29004KT 10SM CLR 03/M01 A3010 RMK AO2 SLP197 T00331011 50007

TAF KFTY
Valide du 26 à 00h jusqu'au 27 à 00h UTC


252332Z 2600/2624 29006KT P6SM SCT030
FM260200 29006KT P6SM SCT250
FM261700 30005KT P6SM SCT080 BKN150
FM262000 28006KT P6SM SCT050 BKN080
FM262300 25004KT P6SM BKN050



MET'MAP, la Météo Aéronautique d'un coup d'oeil ! - Copyright ORBIFLY Décembre 2007 - Disclaimer

ORBIFLY MET'MAP TEAM :

Programmation & Développement : Alexandra Zaïnal
Sur une idée originale de : Baudouin d'Aumeries
Assistance à la programmation : Marc-Olivier Méhu
Soutien technique & logistique : Manuel Goepfert

Contact : metmap@orbifly.com




SOURCES & CREDITS :

   NOAA       Earth
Advisory